sensor_id;sensor_type;location;lat;lon;timestamp;P1;durP1;ratioP1;P2;durP2;ratioP2
28245;SDS011;15510;52.512;13.300;2024-02-21T00:00:39;22.00;;;4.63;;
28245;SDS011;15510;52.512;13.300;2024-02-21T00:03:12;17.43;;;4.93;;
28245;SDS011;15510;52.512;13.300;2024-02-21T00:05:40;13.90;;;4.87;;
28245;SDS011;15510;52.512;13.300;2024-02-21T00:08:06;15.00;;;4.50;;
28245;SDS011;15510;52.512;13.300;2024-02-21T00:10:32;14.60;;;3.90;;
28245;SDS011;15510;52.512;13.300;2024-02-21T00:13:01;17.23;;;4.33;;
28245;SDS011;15510;52.512;13.300;2024-02-21T00:15:33;21.90;;;4.30;;
28245;SDS011;15510;52.512;13.300;2024-02-21T00:17:58;19.73;;;5.20;;
28245;SDS011;15510;52.512;13.300;2024-02-21T00:20:25;13.10;;;4.50;;
28245;SDS011;15510;52.512;13.300;2024-02-21T00:22:54;15.40;;;4.10;;
28245;SDS011;15510;52.512;13.300;2024-02-21T00:25:20;17.33;;;4.47;;
28245;SDS011;15510;52.512;13.300;2024-02-21T00:27:46;13.07;;;4.43;;
28245;SDS011;15510;52.512;13.300;2024-02-21T00:30:14;19.00;;;4.60;;
28245;SDS011;15510;52.512;13.300;2024-02-21T00:32:40;17.40;;;4.73;;
28245;SDS011;15510;52.512;13.300;2024-02-21T00:35:06;16.23;;;3.93;;
28245;SDS011;15510;52.512;13.300;2024-02-21T00:37:32;15.03;;;3.97;;
28245;SDS011;15510;52.512;13.300;2024-02-21T00:40:06;15.27;;;4.40;;
28245;SDS011;15510;52.512;13.300;2024-02-21T00:42:32;15.00;;;4.30;;
28245;SDS011;15510;52.512;13.300;2024-02-21T00:44:58;15.83;;;4.37;;
28245;SDS011;15510;52.512;13.300;2024-02-21T00:47:23;14.33;;;3.93;;
28245;SDS011;15510;52.512;13.300;2024-02-21T00:49:49;16.00;;;4.20;;
28245;SDS011;15510;52.512;13.300;2024-02-21T00:52:15;15.03;;;4.40;;
28245;SDS011;15510;52.512;13.300;2024-02-21T00:54:41;11.13;;;3.43;;
28245;SDS011;15510;52.512;13.300;2024-02-21T00:57:07;25.27;;;4.63;;
28245;SDS011;15510;52.512;13.300;2024-02-21T00:59:32;11.87;;;3.20;;
28245;SDS011;15510;52.512;13.300;2024-02-21T01:01:58;12.80;;;4.23;;
28245;SDS011;15510;52.512;13.300;2024-02-21T01:04:24;16.80;;;3.90;;
28245;SDS011;15510;52.512;13.300;2024-02-21T01:06:50;18.40;;;4.90;;
28245;SDS011;15510;52.512;13.300;2024-02-21T01:09:15;12.60;;;3.53;;
28245;SDS011;15510;52.512;13.300;2024-02-21T01:11:41;9.67;;;3.53;;
28245;SDS011;15510;52.512;13.300;2024-02-21T01:14:07;15.00;;;3.83;;
28245;SDS011;15510;52.512;13.300;2024-02-21T01:16:32;14.13;;;4.23;;
28245;SDS011;15510;52.512;13.300;2024-02-21T01:18:58;12.33;;;4.30;;
28245;SDS011;15510;52.512;13.300;2024-02-21T01:21:24;16.77;;;4.40;;
28245;SDS011;15510;52.512;13.300;2024-02-21T01:23:49;14.23;;;4.47;;
28245;SDS011;15510;52.512;13.300;2024-02-21T01:26:15;12.13;;;3.70;;
28245;SDS011;15510;52.512;13.300;2024-02-21T01:28:41;16.40;;;4.03;;
28245;SDS011;15510;52.512;13.300;2024-02-21T01:31:07;9.73;;;3.63;;
28245;SDS011;15510;52.512;13.300;2024-02-21T01:33:32;9.17;;;3.57;;
28245;SDS011;15510;52.512;13.300;2024-02-21T01:36:03;12.70;;;4.60;;
28245;SDS011;15510;52.512;13.300;2024-02-21T01:38:31;12.47;;;3.70;;
28245;SDS011;15510;52.512;13.300;2024-02-21T01:40:58;18.23;;;3.77;;
28245;SDS011;15510;52.512;13.300;2024-02-21T01:43:23;16.87;;;4.33;;
28245;SDS011;15510;52.512;13.300;2024-02-21T01:45:50;13.13;;;3.27;;
28245;SDS011;15510;52.512;13.300;2024-02-21T01:48:17;18.00;;;4.83;;
28245;SDS011;15510;52.512;13.300;2024-02-21T01:50:46;13.03;;;3.67;;
28245;SDS011;15510;52.512;13.300;2024-02-21T01:53:13;12.33;;;3.50;;
28245;SDS011;15510;52.512;13.300;2024-02-21T01:55:46;14.63;;;4.27;;
28245;SDS011;15510;52.512;13.300;2024-02-21T01:58:13;10.37;;;3.10;;
28245;SDS011;15510;52.512;13.300;2024-02-21T02:00:43;11.70;;;3.90;;
28245;SDS011;15510;52.512;13.300;2024-02-21T02:03:12;14.67;;;3.70;;
28245;SDS011;15510;52.512;13.300;2024-02-21T02:08:16;10.27;;;3.23;;
28245;SDS011;15510;52.512;13.300;2024-02-21T02:10:44;8.87;;;3.90;;
28245;SDS011;15510;52.512;13.300;2024-02-21T02:13:11;11.83;;;3.60;;
28245;SDS011;15510;52.512;13.300;2024-02-21T02:15:37;12.00;;;3.47;;
28245;SDS011;15510;52.512;13.300;2024-02-21T02:18:04;9.03;;;3.20;;
28245;SDS011;15510;52.512;13.300;2024-02-21T02:20:30;8.37;;;3.50;;
28245;SDS011;15510;52.512;13.300;2024-02-21T02:22:56;10.77;;;3.83;;
28245;SDS011;15510;52.512;13.300;2024-02-21T02:25:24;13.17;;;3.97;;
28245;SDS011;15510;52.512;13.300;2024-02-21T02:27:51;10.67;;;3.67;;
28245;SDS011;15510;52.512;13.300;2024-02-21T02:30:17;14.60;;;3.17;;
28245;SDS011;15510;52.512;13.300;2024-02-21T02:32:44;9.50;;;3.27;;
28245;SDS011;15510;52.512;13.300;2024-02-21T02:35:11;16.47;;;3.47;;
28245;SDS011;15510;52.512;13.300;2024-02-21T02:37:37;15.97;;;4.17;;
28245;SDS011;15510;52.512;13.300;2024-02-21T02:40:05;11.07;;;4.10;;
28245;SDS011;15510;52.512;13.300;2024-02-21T02:42:31;8.10;;;3.97;;
28245;SDS011;15510;52.512;13.300;2024-02-21T02:44:57;13.97;;;4.07;;
28245;SDS011;15510;52.512;13.300;2024-02-21T02:47:23;12.53;;;3.97;;
28245;SDS011;15510;52.512;13.300;2024-02-21T02:49:49;13.57;;;4.47;;
28245;SDS011;15510;52.512;13.300;2024-02-21T02:52:18;16.73;;;4.23;;
28245;SDS011;15510;52.512;13.300;2024-02-21T02:54:44;17.13;;;4.30;;
28245;SDS011;15510;52.512;13.300;2024-02-21T02:57:10;15.33;;;3.97;;
28245;SDS011;15510;52.512;13.300;2024-02-21T02:59:36;12.70;;;4.07;;
28245;SDS011;15510;52.512;13.300;2024-02-21T03:02:02;10.77;;;3.60;;
28245;SDS011;15510;52.512;13.300;2024-02-21T03:04:27;13.30;;;4.47;;
28245;SDS011;15510;52.512;13.300;2024-02-21T03:06:53;13.70;;;4.27;;
28245;SDS011;15510;52.512;13.300;2024-02-21T03:09:19;11.90;;;4.00;;
28245;SDS011;15510;52.512;13.300;2024-02-21T03:11:44;13.90;;;4.57;;
28245;SDS011;15510;52.512;13.300;2024-02-21T03:14:10;14.13;;;4.40;;
28245;SDS011;15510;52.512;13.300;2024-02-21T03:16:36;11.60;;;4.40;;
28245;SDS011;15510;52.512;13.300;2024-02-21T03:19:02;15.27;;;4.40;;
28245;SDS011;15510;52.512;13.300;2024-02-21T03:21:28;16.00;;;4.57;;
28245;SDS011;15510;52.512;13.300;2024-02-21T03:23:54;14.43;;;4.23;;
28245;SDS011;15510;52.512;13.300;2024-02-21T03:26:19;15.87;;;4.80;;
28245;SDS011;15510;52.512;13.300;2024-02-21T03:28:45;11.47;;;3.63;;
28245;SDS011;15510;52.512;13.300;2024-02-21T03:31:11;17.33;;;5.13;;
28245;SDS011;15510;52.512;13.300;2024-02-21T03:33:41;23.43;;;5.63;;
28245;SDS011;15510;52.512;13.300;2024-02-21T03:36:12;16.87;;;4.23;;
28245;SDS011;15510;52.512;13.300;2024-02-21T03:38:39;12.13;;;4.60;;
28245;SDS011;15510;52.512;13.300;2024-02-21T03:41:05;12.50;;;4.40;;
28245;SDS011;15510;52.512;13.300;2024-02-21T03:43:30;17.40;;;5.07;;
28245;SDS011;15510;52.512;13.300;2024-02-21T03:45:56;13.80;;;4.63;;
28245;SDS011;15510;52.512;13.300;2024-02-21T03:48:22;17.33;;;5.37;;
28245;SDS011;15510;52.512;13.300;2024-02-21T03:50:47;13.53;;;4.40;;
28245;SDS011;15510;52.512;13.300;2024-02-21T03:53:13;10.70;;;5.13;;
28245;SDS011;15510;52.512;13.300;2024-02-21T03:55:39;18.63;;;5.83;;
28245;SDS011;15510;52.512;13.300;2024-02-21T03:58:05;15.57;;;5.67;;
28245;SDS011;15510;52.512;13.300;2024-02-21T04:00:30;12.00;;;4.77;;
28245;SDS011;15510;52.512;13.300;2024-02-21T04:02:56;15.77;;;5.87;;
28245;SDS011;15510;52.512;13.300;2024-02-21T04:05:22;16.30;;;5.50;;
28245;SDS011;15510;52.512;13.300;2024-02-21T04:07:47;15.00;;;4.73;;
28245;SDS011;15510;52.512;13.300;2024-02-21T04:10:13;19.67;;;5.80;;
28245;SDS011;15510;52.512;13.300;2024-02-21T04:12:39;13.13;;;5.10;;
28245;SDS011;15510;52.512;13.300;2024-02-21T04:15:04;19.33;;;6.23;;
28245;SDS011;15510;52.512;13.300;2024-02-21T04:17:31;14.27;;;5.13;;
28245;SDS011;15510;52.512;13.300;2024-02-21T04:20:01;12.87;;;5.53;;
28245;SDS011;15510;52.512;13.300;2024-02-21T04:22:33;16.63;;;5.53;;
28245;SDS011;15510;52.512;13.300;2024-02-21T04:24:59;15.87;;;5.10;;
28245;SDS011;15510;52.512;13.300;2024-02-21T04:27:25;20.73;;;5.87;;
28245;SDS011;15510;52.512;13.300;2024-02-21T04:29:51;20.27;;;6.17;;
28245;SDS011;15510;52.512;13.300;2024-02-21T04:32:18;15.43;;;5.50;;
28245;SDS011;15510;52.512;13.300;2024-02-21T04:34:44;8.77;;;5.27;;
28245;SDS011;15510;52.512;13.300;2024-02-21T04:37:09;16.43;;;5.03;;
28245;SDS011;15510;52.512;13.300;2024-02-21T04:39:35;13.63;;;5.83;;
28245;SDS011;15510;52.512;13.300;2024-02-21T04:42:01;13.97;;;5.07;;
28245;SDS011;15510;52.512;13.300;2024-02-21T04:44:27;13.83;;;5.00;;
28245;SDS011;15510;52.512;13.300;2024-02-21T04:46:52;11.43;;;5.23;;
28245;SDS011;15510;52.512;13.300;2024-02-21T04:49:18;14.97;;;5.50;;
28245;SDS011;15510;52.512;13.300;2024-02-21T04:51:44;12.30;;;5.13;;
28245;SDS011;15510;52.512;13.300;2024-02-21T04:54:09;21.57;;;5.80;;
28245;SDS011;15510;52.512;13.300;2024-02-21T04:56:35;14.87;;;5.13;;
28245;SDS011;15510;52.512;13.300;2024-02-21T04:59:01;16.57;;;5.80;;
28245;SDS011;15510;52.512;13.300;2024-02-21T05:01:27;16.80;;;5.60;;
28245;SDS011;15510;52.512;13.300;2024-02-21T05:03:53;15.67;;;5.83;;
28245;SDS011;15510;52.512;13.300;2024-02-21T05:06:19;17.33;;;5.60;;
28245;SDS011;15510;52.512;13.300;2024-02-21T05:08:45;17.07;;;6.00;;
28245;SDS011;15510;52.512;13.300;2024-02-21T05:11:10;15.77;;;5.50;;
28245;SDS011;15510;52.512;13.300;2024-02-21T05:13:36;11.90;;;5.87;;
28245;SDS011;15510;52.512;13.300;2024-02-21T05:16:01;19.27;;;5.40;;
28245;SDS011;15510;52.512;13.300;2024-02-21T05:18:28;13.70;;;5.57;;
28245;SDS011;15510;52.512;13.300;2024-02-21T05:20:53;16.80;;;6.07;;
28245;SDS011;15510;52.512;13.300;2024-02-21T05:23:19;17.83;;;5.70;;
28245;SDS011;15510;52.512;13.300;2024-02-21T05:25:45;16.07;;;5.70;;
28245;SDS011;15510;52.512;13.300;2024-02-21T05:28:10;13.87;;;5.53;;
28245;SDS011;15510;52.512;13.300;2024-02-21T05:30:36;18.90;;;6.37;;
28245;SDS011;15510;52.512;13.300;2024-02-21T05:33:05;15.13;;;6.30;;
28245;SDS011;15510;52.512;13.300;2024-02-21T05:35:31;17.10;;;6.10;;
28245;SDS011;15510;52.512;13.300;2024-02-21T05:37:57;15.67;;;5.90;;
28245;SDS011;15510;52.512;13.300;2024-02-21T05:40:24;14.53;;;5.50;;
28245;SDS011;15510;52.512;13.300;2024-02-21T05:42:50;15.37;;;6.37;;
28245;SDS011;15510;52.512;13.300;2024-02-21T05:45:17;14.60;;;5.77;;
28245;SDS011;15510;52.512;13.300;2024-02-21T05:47:43;17.30;;;5.73;;
28245;SDS011;15510;52.512;13.300;2024-02-21T05:50:09;14.77;;;5.83;;
28245;SDS011;15510;52.512;13.300;2024-02-21T05:52:35;16.70;;;6.27;;
28245;SDS011;15510;52.512;13.300;2024-02-21T05:55:01;14.67;;;5.10;;
28245;SDS011;15510;52.512;13.300;2024-02-21T05:57:27;15.10;;;6.33;;
28245;SDS011;15510;52.512;13.300;2024-02-21T05:59:52;17.87;;;6.43;;
28245;SDS011;15510;52.512;13.300;2024-02-21T06:02:18;19.57;;;6.57;;
28245;SDS011;15510;52.512;13.300;2024-02-21T06:04:43;16.17;;;6.27;;
28245;SDS011;15510;52.512;13.300;2024-02-21T06:07:11;20.37;;;6.67;;
28245;SDS011;15510;52.512;13.300;2024-02-21T06:09:37;17.40;;;6.93;;
28245;SDS011;15510;52.512;13.300;2024-02-21T06:12:03;18.07;;;6.27;;
28245;SDS011;15510;52.512;13.300;2024-02-21T06:14:28;19.43;;;6.43;;
28245;SDS011;15510;52.512;13.300;2024-02-21T06:16:54;16.57;;;5.87;;
28245;SDS011;15510;52.512;13.300;2024-02-21T06:19:20;15.83;;;6.43;;
28245;SDS011;15510;52.512;13.300;2024-02-21T06:21:46;15.43;;;6.43;;
28245;SDS011;15510;52.512;13.300;2024-02-21T06:24:11;18.57;;;6.30;;
28245;SDS011;15510;52.512;13.300;2024-02-21T06:26:37;14.33;;;6.80;;
28245;SDS011;15510;52.512;13.300;2024-02-21T06:29:05;17.70;;;6.53;;
28245;SDS011;15510;52.512;13.300;2024-02-21T06:31:31;20.80;;;6.90;;
28245;SDS011;15510;52.512;13.300;2024-02-21T06:33:57;14.23;;;6.90;;
28245;SDS011;15510;52.512;13.300;2024-02-21T06:36:23;15.10;;;6.27;;
28245;SDS011;15510;52.512;13.300;2024-02-21T06:38:48;16.70;;;7.27;;
28245;SDS011;15510;52.512;13.300;2024-02-21T06:41:15;17.50;;;7.53;;
28245;SDS011;15510;52.512;13.300;2024-02-21T06:43:43;18.63;;;8.17;;
28245;SDS011;15510;52.512;13.300;2024-02-21T06:46:10;17.47;;;7.03;;
28245;SDS011;15510;52.512;13.300;2024-02-21T06:48:35;16.10;;;6.73;;
28245;SDS011;15510;52.512;13.300;2024-02-21T06:51:01;16.30;;;7.10;;
28245;SDS011;15510;52.512;13.300;2024-02-21T06:53:27;16.83;;;6.40;;
28245;SDS011;15510;52.512;13.300;2024-02-21T06:55:52;11.03;;;6.50;;
28245;SDS011;15510;52.512;13.300;2024-02-21T06:58:18;16.67;;;7.33;;
28245;SDS011;15510;52.512;13.300;2024-02-21T07:00:44;13.00;;;6.47;;
28245;SDS011;15510;52.512;13.300;2024-02-21T07:03:09;12.37;;;6.43;;
28245;SDS011;15510;52.512;13.300;2024-02-21T07:05:35;14.13;;;6.73;;
28245;SDS011;15510;52.512;13.300;2024-02-21T07:08:01;19.03;;;6.13;;
28245;SDS011;15510;52.512;13.300;2024-02-21T07:10:28;13.37;;;6.50;;
28245;SDS011;15510;52.512;13.300;2024-02-21T07:12:54;14.97;;;6.27;;
28245;SDS011;15510;52.512;13.300;2024-02-21T07:15:20;13.93;;;6.27;;
28245;SDS011;15510;52.512;13.300;2024-02-21T07:17:46;16.47;;;6.50;;
28245;SDS011;15510;52.512;13.300;2024-02-21T07:20:12;15.33;;;6.33;;
28245;SDS011;15510;52.512;13.300;2024-02-21T07:22:37;11.73;;;6.93;;
28245;SDS011;15510;52.512;13.300;2024-02-21T07:25:03;13.07;;;6.50;;
28245;SDS011;15510;52.512;13.300;2024-02-21T07:27:29;18.37;;;7.03;;
28245;SDS011;15510;52.512;13.300;2024-02-21T07:29:57;23.00;;;7.07;;
28245;SDS011;15510;52.512;13.300;2024-02-21T07:32:22;14.03;;;6.27;;
28245;SDS011;15510;52.512;13.300;2024-02-21T07:34:48;14.47;;;6.30;;
28245;SDS011;15510;52.512;13.300;2024-02-21T07:37:14;13.27;;;6.13;;
28245;SDS011;15510;52.512;13.300;2024-02-21T07:39:40;16.17;;;6.43;;
28245;SDS011;15510;52.512;13.300;2024-02-21T07:42:06;13.03;;;7.00;;
28245;SDS011;15510;52.512;13.300;2024-02-21T07:44:32;13.47;;;5.97;;
28245;SDS011;15510;52.512;13.300;2024-02-21T07:46:57;16.27;;;6.23;;
28245;SDS011;15510;52.512;13.300;2024-02-21T07:49:24;10.63;;;5.33;;
28245;SDS011;15510;52.512;13.300;2024-02-21T07:51:50;12.13;;;5.83;;
28245;SDS011;15510;52.512;13.300;2024-02-21T07:54:17;13.53;;;5.63;;
28245;SDS011;15510;52.512;13.300;2024-02-21T07:56:43;12.70;;;5.67;;
28245;SDS011;15510;52.512;13.300;2024-02-21T07:59:09;12.83;;;5.43;;
28245;SDS011;15510;52.512;13.300;2024-02-21T08:01:34;13.73;;;6.37;;
28245;SDS011;15510;52.512;13.300;2024-02-21T08:04:00;15.90;;;5.80;;
28245;SDS011;15510;52.512;13.300;2024-02-21T08:06:27;8.80;;;5.77;;
28245;SDS011;15510;52.512;13.300;2024-02-21T08:08:53;19.77;;;7.43;;
28245;SDS011;15510;52.512;13.300;2024-02-21T08:11:19;16.37;;;6.30;;
28245;SDS011;15510;52.512;13.300;2024-02-21T08:13:45;11.47;;;5.33;;
28245;SDS011;15510;52.512;13.300;2024-02-21T08:16:11;14.93;;;6.50;;
28245;SDS011;15510;52.512;13.300;2024-02-21T08:18:36;13.37;;;5.67;;
28245;SDS011;15510;52.512;13.300;2024-02-21T08:21:03;10.13;;;5.37;;
28245;SDS011;15510;52.512;13.300;2024-02-21T08:23:29;10.73;;;4.83;;
28245;SDS011;15510;52.512;13.300;2024-02-21T08:25:55;13.37;;;5.60;;
28245;SDS011;15510;52.512;13.300;2024-02-21T08:28:21;16.50;;;6.90;;
28245;SDS011;15510;52.512;13.300;2024-02-21T08:30:47;11.37;;;5.93;;
28245;SDS011;15510;52.512;13.300;2024-02-21T08:33:15;11.00;;;6.13;;
28245;SDS011;15510;52.512;13.300;2024-02-21T08:35:42;14.20;;;6.53;;
28245;SDS011;15510;52.512;13.300;2024-02-21T08:38:07;14.37;;;5.77;;
28245;SDS011;15510;52.512;13.300;2024-02-21T08:40:33;11.70;;;5.53;;
28245;SDS011;15510;52.512;13.300;2024-02-21T08:43:00;12.10;;;6.40;;
28245;SDS011;15510;52.512;13.300;2024-02-21T08:45:26;17.37;;;6.40;;
28245;SDS011;15510;52.512;13.300;2024-02-21T08:47:52;10.53;;;6.23;;
28245;SDS011;15510;52.512;13.300;2024-02-21T08:50:18;14.47;;;6.17;;
28245;SDS011;15510;52.512;13.300;2024-02-21T08:52:43;14.10;;;6.60;;
28245;SDS011;15510;52.512;13.300;2024-02-21T08:55:09;12.33;;;6.37;;
28245;SDS011;15510;52.512;13.300;2024-02-21T08:57:35;11.33;;;5.90;;
28245;SDS011;15510;52.512;13.300;2024-02-21T09:00:04;13.00;;;6.13;;
28245;SDS011;15510;52.512;13.300;2024-02-21T09:02:35;15.43;;;6.60;;
28245;SDS011;15510;52.512;13.300;2024-02-21T09:05:03;13.33;;;6.17;;
28245;SDS011;15510;52.512;13.300;2024-02-21T09:07:30;13.27;;;6.30;;
28245;SDS011;15510;52.512;13.300;2024-02-21T09:09:56;16.83;;;6.57;;
28245;SDS011;15510;52.512;13.300;2024-02-21T09:12:21;13.60;;;6.77;;
28245;SDS011;15510;52.512;13.300;2024-02-21T09:14:47;11.70;;;6.50;;
28245;SDS011;15510;52.512;13.300;2024-02-21T09:17:16;16.07;;;6.53;;
28245;SDS011;15510;52.512;13.300;2024-02-21T09:19:46;15.63;;;6.83;;
28245;SDS011;15510;52.512;13.300;2024-02-21T09:22:13;14.03;;;6.80;;
28245;SDS011;15510;52.512;13.300;2024-02-21T09:24:38;15.30;;;7.00;;
28245;SDS011;15510;52.512;13.300;2024-02-21T09:27:04;12.13;;;6.03;;
28245;SDS011;15510;52.512;13.300;2024-02-21T09:29:31;9.63;;;6.73;;
28245;SDS011;15510;52.512;13.300;2024-02-21T09:31:58;13.63;;;7.20;;
28245;SDS011;15510;52.512;13.300;2024-02-21T09:34:24;15.73;;;6.90;;
28245;SDS011;15510;52.512;13.300;2024-02-21T09:36:50;13.33;;;7.07;;
28245;SDS011;15510;52.512;13.300;2024-02-21T09:39:16;16.73;;;7.40;;
28245;SDS011;15510;52.512;13.300;2024-02-21T09:41:49;17.07;;;7.47;;
28245;SDS011;15510;52.512;13.300;2024-02-21T09:44:20;14.43;;;7.00;;
28245;SDS011;15510;52.512;13.300;2024-02-21T09:46:51;16.93;;;7.63;;
28245;SDS011;15510;52.512;13.300;2024-02-21T09:49:29;11.53;;;6.77;;
28245;SDS011;15510;52.512;13.300;2024-02-21T09:51:57;12.83;;;7.33;;
28245;SDS011;15510;52.512;13.300;2024-02-21T09:54:28;10.33;;;6.53;;
28245;SDS011;15510;52.512;13.300;2024-02-21T09:56:57;15.53;;;6.60;;
28245;SDS011;15510;52.512;13.300;2024-02-21T09:59:23;18.00;;;6.87;;
28245;SDS011;15510;52.512;13.300;2024-02-21T10:01:50;13.20;;;7.73;;
28245;SDS011;15510;52.512;13.300;2024-02-21T10:04:16;10.60;;;6.20;;
28245;SDS011;15510;52.512;13.300;2024-02-21T10:06:43;17.00;;;7.40;;
28245;SDS011;15510;52.512;13.300;2024-02-21T10:09:19;13.77;;;6.93;;
28245;SDS011;15510;52.512;13.300;2024-02-21T10:11:49;12.77;;;6.83;;
28245;SDS011;15510;52.512;13.300;2024-02-21T10:14:18;15.33;;;6.67;;
28245;SDS011;15510;52.512;13.300;2024-02-21T10:16:47;13.27;;;7.07;;
28245;SDS011;15510;52.512;13.300;2024-02-21T10:19:18;15.70;;;7.10;;
28245;SDS011;15510;52.512;13.300;2024-02-21T10:21:44;12.97;;;6.50;;
28245;SDS011;15510;52.512;13.300;2024-02-21T10:24:26;13.17;;;6.20;;
28245;SDS011;15510;52.512;13.300;2024-02-21T10:27:06;14.03;;;6.50;;
28245;SDS011;15510;52.512;13.300;2024-02-21T10:29:36;11.07;;;6.85;;
28245;SDS011;15510;52.512;13.300;2024-02-21T10:32:06;11.47;;;6.37;;
28245;SDS011;15510;52.512;13.300;2024-02-21T10:34:39;10.33;;;6.63;;
28245;SDS011;15510;52.512;13.300;2024-02-21T10:37:06;13.37;;;6.30;;
28245;SDS011;15510;52.512;13.300;2024-02-21T10:39:35;13.40;;;5.80;;
28245;SDS011;15510;52.512;13.300;2024-02-21T10:42:03;13.53;;;6.30;;
28245;SDS011;15510;52.512;13.300;2024-02-21T10:44:30;13.17;;;6.90;;
28245;SDS011;15510;52.512;13.300;2024-02-21T10:47:03;12.15;;;6.25;;
28245;SDS011;15510;52.512;13.300;2024-02-21T10:49:35;12.27;;;5.90;;
28245;SDS011;15510;52.512;13.300;2024-02-21T10:52:13;9.17;;;5.73;;
28245;SDS011;15510;52.512;13.300;2024-02-21T10:54:56;7.70;;;5.07;;
28245;SDS011;15510;52.512;13.300;2024-02-21T10:57:26;10.13;;;5.27;;
28245;SDS011;15510;52.512;13.300;2024-02-21T10:59:53;11.83;;;6.47;;
28245;SDS011;15510;52.512;13.300;2024-02-21T11:02:20;8.40;;;5.80;;
28245;SDS011;15510;52.512;13.300;2024-02-21T11:04:47;11.20;;;6.50;;
28245;SDS011;15510;52.512;13.300;2024-02-21T11:07:13;10.57;;;6.63;;
28245;SDS011;15510;52.512;13.300;2024-02-21T11:09:40;12.97;;;5.73;;
28245;SDS011;15510;52.512;13.300;2024-02-21T11:12:20;11.33;;;6.17;;
28245;SDS011;15510;52.512;13.300;2024-02-21T11:14:46;10.93;;;5.73;;
28245;SDS011;15510;52.512;13.300;2024-02-21T11:17:15;10.90;;;5.72;;
28245;SDS011;15510;52.512;13.300;2024-02-21T11:19:42;10.95;;;5.72;;
28245;SDS011;15510;52.512;13.300;2024-02-21T11:22:15;10.20;;;5.40;;
28245;SDS011;15510;52.512;13.300;2024-02-21T11:24:46;10.75;;;5.47;;
28245;SDS011;15510;52.512;13.300;2024-02-21T11:27:13;9.85;;;5.57;;
28245;SDS011;15510;52.512;13.300;2024-02-21T11:29:39;11.32;;;5.75;;
28245;SDS011;15510;52.512;13.300;2024-02-21T11:32:09;8.63;;;4.82;;
28245;SDS011;15510;52.512;13.300;2024-02-21T11:34:36;9.27;;;4.78;;
28245;SDS011;15510;52.512;13.300;2024-02-21T11:37:03;7.85;;;4.60;;
28245;SDS011;15510;52.512;13.300;2024-02-21T11:39:41;8.18;;;4.28;;
28245;SDS011;15510;52.512;13.300;2024-02-21T11:42:07;7.05;;;4.13;;
28245;SDS011;15510;52.512;13.300;2024-02-21T11:44:34;8.63;;;4.13;;
28245;SDS011;15510;52.512;13.300;2024-02-21T11:47:03;5.43;;;3.70;;
28245;SDS011;15510;52.512;13.300;2024-02-21T11:49:35;6.03;;;4.55;;
28245;SDS011;15510;52.512;13.300;2024-02-21T11:52:04;7.35;;;3.92;;
28245;SDS011;15510;52.512;13.300;2024-02-21T11:54:31;5.97;;;4.38;;
28245;SDS011;15510;52.512;13.300;2024-02-21T11:56:56;9.00;;;5.00;;
28245;SDS011;15510;52.512;13.300;2024-02-21T11:59:22;14.65;;;6.32;;
28245;SDS011;15510;52.512;13.300;2024-02-21T12:01:48;7.07;;;3.88;;
28245;SDS011;15510;52.512;13.300;2024-02-21T12:04:15;8.45;;;4.22;;
28245;SDS011;15510;52.512;13.300;2024-02-21T12:06:42;8.15;;;3.70;;
28245;SDS011;15510;52.512;13.300;2024-02-21T12:09:10;10.77;;;4.28;;
28245;SDS011;15510;52.512;13.300;2024-02-21T12:11:40;7.10;;;4.25;;
28245;SDS011;15510;52.512;13.300;2024-02-21T12:14:05;8.45;;;4.25;;
28245;SDS011;15510;52.512;13.300;2024-02-21T12:16:32;6.20;;;4.70;;
28245;SDS011;15510;52.512;13.300;2024-02-21T12:19:01;8.88;;;4.40;;
28245;SDS011;15510;52.512;13.300;2024-02-21T12:21:34;10.50;;;5.70;;
28245;SDS011;15510;52.512;13.300;2024-02-21T12:24:12;8.50;;;4.30;;
28245;SDS011;15510;52.512;13.300;2024-02-21T12:26:39;7.38;;;4.78;;
28245;SDS011;15510;52.512;13.300;2024-02-21T12:29:05;5.30;;;3.60;;
28245;SDS011;15510;52.512;13.300;2024-02-21T12:31:32;4.68;;;3.15;;
28245;SDS011;15510;52.512;13.300;2024-02-21T12:33:58;4.90;;;2.90;;
28245;SDS011;15510;52.512;13.300;2024-02-21T12:36:24;4.68;;;2.85;;
28245;SDS011;15510;52.512;13.300;2024-02-21T12:38:51;6.85;;;3.50;;
28245;SDS011;15510;52.512;13.300;2024-02-21T12:41:17;7.72;;;3.72;;
28245;SDS011;15510;52.512;13.300;2024-02-21T12:43:42;6.60;;;3.70;;
28245;SDS011;15510;52.512;13.300;2024-02-21T12:46:08;5.95;;;3.40;;
28245;SDS011;15510;52.512;13.300;2024-02-21T12:48:34;5.07;;;3.38;;
28245;SDS011;15510;52.512;13.300;2024-02-21T12:51:00;3.67;;;2.85;;
28245;SDS011;15510;52.512;13.300;2024-02-21T12:53:25;4.47;;;3.00;;
28245;SDS011;15510;52.512;13.300;2024-02-21T12:55:58;7.50;;;3.78;;
28245;SDS011;15510;52.512;13.300;2024-02-21T12:58:24;4.35;;;3.15;;
28245;SDS011;15510;52.512;13.300;2024-02-21T13:00:51;5.28;;;3.60;;
28245;SDS011;15510;52.512;13.300;2024-02-21T13:03:17;5.88;;;2.90;;
28245;SDS011;15510;52.512;13.300;2024-02-21T13:05:42;5.93;;;3.58;;
28245;SDS011;15510;52.512;13.300;2024-02-21T13:08:08;5.75;;;2.88;;
28245;SDS011;15510;52.512;13.300;2024-02-21T13:10:34;8.20;;;3.20;;
28245;SDS011;15510;52.512;13.300;2024-02-21T13:13:01;6.18;;;3.42;;
28245;SDS011;15510;52.512;13.300;2024-02-21T13:15:27;7.65;;;4.00;;
28245;SDS011;15510;52.512;13.300;2024-02-21T13:17:56;7.93;;;4.00;;
28245;SDS011;15510;52.512;13.300;2024-02-21T13:20:25;6.80;;;4.45;;
28245;SDS011;15510;52.512;13.300;2024-02-21T13:22:52;8.07;;;3.97;;
28245;SDS011;15510;52.512;13.300;2024-02-21T13:25:17;3.28;;;2.67;;
28245;SDS011;15510;52.512;13.300;2024-02-21T13:27:46;7.45;;;3.05;;
28245;SDS011;15510;52.512;13.300;2024-02-21T13:30:13;8.32;;;3.17;;
28245;SDS011;15510;52.512;13.300;2024-02-21T13:32:43;4.93;;;2.60;;
28245;SDS011;15510;52.512;13.300;2024-02-21T13:35:11;6.00;;;2.90;;
28245;SDS011;15510;52.512;13.300;2024-02-21T13:37:38;4.85;;;2.80;;
28245;SDS011;15510;52.512;13.300;2024-02-21T13:40:04;4.43;;;2.90;;
28245;SDS011;15510;52.512;13.300;2024-02-21T13:42:30;7.30;;;3.00;;
28245;SDS011;15510;52.512;13.300;2024-02-21T13:44:56;6.13;;;3.08;;
28245;SDS011;15510;52.512;13.300;2024-02-21T13:47:22;4.97;;;3.28;;
28245;SDS011;15510;52.512;13.300;2024-02-21T13:49:48;6.43;;;2.78;;
28245;SDS011;15510;52.512;13.300;2024-02-21T13:52:14;6.50;;;3.72;;
28245;SDS011;15510;52.512;13.300;2024-02-21T13:54:40;5.65;;;2.70;;
28245;SDS011;15510;52.512;13.300;2024-02-21T13:57:07;8.20;;;2.88;;
28245;SDS011;15510;52.512;13.300;2024-02-21T13:59:33;4.00;;;2.80;;
28245;SDS011;15510;52.512;13.300;2024-02-21T14:01:59;6.45;;;2.50;;
28245;SDS011;15510;52.512;13.300;2024-02-21T14:04:25;6.45;;;3.13;;
28245;SDS011;15510;52.512;13.300;2024-02-21T14:06:51;6.57;;;2.80;;
28245;SDS011;15510;52.512;13.300;2024-02-21T14:09:18;6.03;;;3.45;;
28245;SDS011;15510;52.512;13.300;2024-02-21T14:11:44;4.95;;;2.70;;
28245;SDS011;15510;52.512;13.300;2024-02-21T14:14:10;6.70;;;2.17;;
28245;SDS011;15510;52.512;13.300;2024-02-21T14:16:41;6.47;;;2.63;;
28245;SDS011;15510;52.512;13.300;2024-02-21T14:19:09;6.20;;;2.53;;
28245;SDS011;15510;52.512;13.300;2024-02-21T14:21:39;5.78;;;2.08;;
28245;SDS011;15510;52.512;13.300;2024-02-21T14:24:05;5.47;;;2.60;;